createdAt,value
2022-08-30T00:01:29.751Z,100336.08
2022-08-30T00:03:58.626Z,100335.63
2022-08-30T00:06:28.666Z,100334.89
2022-08-30T00:08:56.382Z,100335.95
2022-08-30T00:11:26.993Z,100336.06
2022-08-30T00:13:56.426Z,100344.15
2022-08-30T00:16:26.318Z,100345.38
2022-08-30T00:18:54.625Z,100350.98
2022-08-30T00:21:22.616Z,100350.12
2022-08-30T00:23:50.282Z,100348.98
2022-08-30T00:26:17.806Z,100349.32
2022-08-30T00:28:45.305Z,100347.75
2022-08-30T00:31:15.170Z,100347.23
2022-08-30T00:33:43.527Z,100347.17
2022-08-30T00:36:11.130Z,100347.70
2022-08-30T00:38:38.595Z,100350.28
2022-08-30T00:41:06.926Z,100349.10
2022-08-30T00:43:36.881Z,100348.08
2022-08-30T00:46:08.708Z,100347.26
2022-08-30T00:48:41.106Z,100350.67
2022-08-30T00:51:12.663Z,100350.02
2022-08-30T00:53:45.184Z,100351.25
2022-08-30T00:56:13.673Z,100357.98
2022-08-30T00:58:47.276Z,100359.63
2022-08-30T01:01:15.134Z,100360.23
2022-08-30T01:03:44.645Z,100360.84
2022-08-30T01:06:15.635Z,100359.41
2022-08-30T01:08:46.197Z,100357.39
2022-08-30T01:11:17.202Z,100362.48
2022-08-30T01:13:47.583Z,100368.08
2022-08-30T01:16:15.767Z,100364.66
2022-08-30T01:18:44.610Z,100363.30
2022-08-30T01:21:37.037Z,100365.06
2022-08-30T01:24:05.614Z,100363.40
2022-08-30T01:26:35.154Z,100363.72
2022-08-30T01:29:07.466Z,100362.30
2022-08-30T01:31:36.937Z,100361.60
2022-08-30T01:34:07.572Z,100362.91
2022-08-30T01:36:44.921Z,100359.21
2022-08-30T01:39:17.691Z,100360.89
2022-08-30T01:41:45.912Z,100355.95
2022-08-30T01:44:14.573Z,100353.85
2022-08-30T01:46:46.272Z,100356.50
2022-08-30T01:49:16.288Z,100357.71
2022-08-30T01:51:44.256Z,100359.34
2022-08-30T01:54:12.615Z,100359.52
2022-08-30T01:56:40.395Z,100354.09
2022-08-30T01:59:07.839Z,100356.19
2022-08-30T02:01:37.035Z,100352.90
2022-08-30T02:04:06.431Z,100349.05
2022-08-30T02:06:34.609Z,100348.54
2022-08-30T02:09:02.052Z,100350.02
2022-08-30T02:11:29.599Z,100351.08
2022-08-30T02:13:57.046Z,100345.02
2022-08-30T02:16:25.684Z,100350.16
2022-08-30T02:18:56.988Z,100350.67
2022-08-30T02:21:27.517Z,100348.67
2022-08-30T02:23:55.884Z,100347.16
2022-08-30T02:26:24.853Z,100348.20
2022-08-30T02:28:53.173Z,100352.12
2022-08-30T02:31:22.347Z,100354.95
2022-08-30T02:33:52.970Z,100356.95
2022-08-30T02:36:21.568Z,100359.34
2022-08-30T02:38:51.199Z,100355.06
2022-08-30T02:41:20.164Z,100352.40
2022-08-30T02:43:47.644Z,100352.05
2022-08-30T02:46:16.029Z,100356.73
2022-08-30T02:48:44.470Z,100352.11
2022-08-30T02:51:14.422Z,100354.30
2022-08-30T02:53:43.826Z,100352.36
2022-08-30T02:56:13.502Z,100353.92
2022-08-30T02:58:42.399Z,100353.30
2022-08-30T03:01:14.901Z,100351.52
2022-08-30T03:03:45.612Z,100357.11
2022-08-30T03:06:14.523Z,100358.74
2022-08-30T03:08:42.496Z,100358.40
2022-08-30T03:11:10.669Z,100360.20
2022-08-30T03:13:38.228Z,100355.80
2022-08-30T03:16:05.774Z,100352.52
2022-08-30T03:18:33.426Z,100356.39
2022-08-30T03:21:00.897Z,100359.19
2022-08-30T03:23:28.581Z,100361.18
2022-08-30T03:25:57.232Z,100363.14
2022-08-30T03:28:24.656Z,100360.76
2022-08-30T03:30:52.156Z,100360.77
2022-08-30T03:33:20.171Z,100362.64
2022-08-30T03:35:49.577Z,100364.31
2022-08-30T03:38:17.559Z,100368.16
2022-08-30T03:40:45.117Z,100368.66
2022-08-30T03:43:12.715Z,100370.81
2022-08-30T03:45:40.487Z,100376.00
2022-08-30T03:48:07.972Z,100373.92
2022-08-30T03:50:36.800Z,100374.42
2022-08-30T03:53:04.458Z,100368.00
2022-08-30T03:55:32.021Z,100374.26
2022-08-30T03:57:59.414Z,100376.11
2022-08-30T04:00:27.035Z,100375.98
2022-08-30T04:02:54.463Z,100380.15
2022-08-30T04:05:21.911Z,100381.38
2022-08-30T04:07:49.380Z,100382.42
2022-08-30T04:10:17.271Z,100384.33
2022-08-30T04:12:49.367Z,100388.89
2022-08-30T04:15:19.286Z,100389.88
2022-08-30T04:17:48.858Z,100390.33
2022-08-30T04:20:16.570Z,100394.23
2022-08-30T04:22:44.072Z,100393.59
2022-08-30T04:25:15.489Z,100397.13
2022-08-30T04:27:45.729Z,100402.67
2022-08-30T04:30:15.599Z,100404.68
2022-08-30T04:32:44.765Z,100402.38
2022-08-30T04:35:13.624Z,100403.10
2022-08-30T04:37:41.323Z,100402.40
2022-08-30T04:40:10.411Z,100404.53
2022-08-30T04:42:38.211Z,100410.30
2022-08-30T04:45:09.883Z,100410.29
2022-08-30T04:47:39.156Z,100416.20
2022-08-30T04:50:09.296Z,100414.45
2022-08-30T04:52:37.286Z,100416.73
2022-08-30T04:55:06.704Z,100420.55
2022-08-30T04:57:35.022Z,100417.90
2022-08-30T05:00:05.605Z,100415.27
2022-08-30T05:02:33.153Z,100418.09
2022-08-30T05:05:18.033Z,100420.30
2022-08-30T05:07:45.461Z,100423.52
2022-08-30T05:10:13.147Z,100423.52
2022-08-30T05:12:43.144Z,100426.37
2022-08-30T05:15:12.185Z,100425.90
2022-08-30T05:17:40.907Z,100428.32
2022-08-30T05:20:10.692Z,100431.33
2022-08-30T05:22:50.038Z,100432.79
2022-08-30T05:25:25.012Z,100434.19
2022-08-30T05:27:53.526Z,100437.96
2022-08-30T05:30:22.053Z,100436.74
2022-08-30T05:32:50.584Z,100435.25
2022-08-30T05:35:23.477Z,100437.66
2022-08-30T05:37:53.650Z,100437.36
2022-08-30T05:40:22.433Z,100435.28
2022-08-30T05:42:50.614Z,100436.88
2022-08-30T05:45:18.067Z,100435.52
2022-08-30T05:47:47.465Z,100438.69
2022-08-30T05:50:14.922Z,100438.88
2022-08-30T05:52:45.051Z,100435.79
2022-08-30T05:55:13.192Z,100438.36
2022-08-30T05:57:41.731Z,100434.92
2022-08-30T06:00:15.629Z,100436.13
2022-08-30T06:02:43.865Z,100432.61
2022-08-30T06:05:14.498Z,100436.73
2022-08-30T06:07:43.479Z,100435.91
2022-08-30T06:10:12.319Z,100439.19
2022-08-30T06:12:40.275Z,100443.64
2022-08-30T06:15:08.332Z,100449.43
2022-08-30T06:17:35.873Z,100448.70
2022-08-30T06:20:03.778Z,100452.68
2022-08-30T06:22:31.296Z,100454.09
2022-08-30T06:24:58.756Z,100455.52
2022-08-30T06:27:26.230Z,100457.78
2022-08-30T06:29:53.885Z,100462.95
2022-08-30T06:32:22.290Z,100460.01
2022-08-30T06:34:49.842Z,100464.08
2022-08-30T06:37:29.129Z,100469.52
2022-08-30T06:39:59.481Z,100457.91
2022-08-30T06:42:32.000Z,100456.14
2022-08-30T06:45:01.263Z,100457.86
2022-08-30T06:47:29.692Z,100458.60
2022-08-30T06:49:57.977Z,100459.44
2022-08-30T06:52:25.468Z,100462.77
2022-08-30T06:54:55.281Z,100465.79
2022-08-30T06:57:22.740Z,100466.81
2022-08-30T06:59:53.142Z,100473.15
2022-08-30T07:02:25.843Z,100473.63
2022-08-30T07:04:53.664Z,100475.13
2022-08-30T07:07:21.146Z,100474.91
2022-08-30T07:09:48.790Z,100476.84
2022-08-30T07:12:17.201Z,100480.60
2022-08-30T07:14:44.762Z,100477.66
2022-08-30T07:17:32.593Z,100480.75
2022-08-30T07:20:04.410Z,100482.88
2022-08-30T07:22:34.759Z,100483.95
2022-08-30T07:25:02.302Z,100484.41
2022-08-30T07:27:30.853Z,100487.17
2022-08-30T07:29:59.393Z,100489.55
2022-08-30T07:32:26.885Z,100491.15
2022-08-30T07:34:54.370Z,100495.60
2022-08-30T07:37:21.992Z,100497.20
2022-08-30T07:39:49.498Z,100504.11
2022-08-30T07:42:20.152Z,100505.36
2022-08-30T07:44:47.594Z,100503.33
2022-08-30T07:47:16.688Z,100503.36
2022-08-30T07:49:44.297Z,100505.52
2022-08-30T07:52:12.346Z,100509.21
2022-08-30T07:54:40.084Z,100506.28
2022-08-30T07:57:07.882Z,100506.17
2022-08-30T07:59:36.217Z,100509.20
2022-08-30T08:02:04.619Z,100509.86
2022-08-30T08:04:33.101Z,100507.67
2022-08-30T08:07:01.012Z,100510.02
2022-08-30T08:09:28.481Z,100512.50
2022-08-30T08:11:56.064Z,100513.89
2022-08-30T08:14:23.606Z,100518.25
2022-08-30T08:16:51.695Z,100520.58
2022-08-30T08:19:19.545Z,100522.13
2022-08-30T08:21:48.635Z,100521.98
2022-08-30T08:24:17.917Z,100518.73
2022-08-30T08:26:45.620Z,100526.10
2022-08-30T08:29:13.375Z,100529.44
2022-08-30T08:31:42.050Z,100530.11
2022-08-30T08:34:11.674Z,100526.85
2022-08-30T08:36:40.374Z,100525.77
2022-08-30T08:39:09.416Z,100527.81
2022-08-30T08:42:04.366Z,100530.84
2022-08-30T08:44:56.895Z,100533.67
2022-08-30T08:47:40.633Z,100531.73
2022-08-30T08:50:18.609Z,100537.16
2022-08-30T08:53:13.401Z,100538.50
2022-08-30T08:55:51.576Z,100541.30
2022-08-30T08:58:25.992Z,100542.21
2022-08-30T09:00:56.362Z,100544.89
2022-08-30T09:03:26.680Z,100547.02
2022-08-30T09:05:55.448Z,100542.52
2022-08-30T09:08:23.419Z,100548.49
2022-08-30T09:10:59.602Z,100547.17
2022-08-30T09:13:27.555Z,100549.19
2022-08-30T09:15:57.381Z,100549.65
2022-08-30T09:21:35.529Z,100548.08
2022-08-30T09:24:08.706Z,100545.60
2022-08-30T09:26:38.138Z,100544.28
2022-08-30T09:29:16.087Z,100547.48
2022-08-30T09:32:10.040Z,100551.14
2022-08-30T09:34:43.674Z,100553.70
2022-08-30T09:37:26.493Z,100552.81
2022-08-30T09:39:54.110Z,100555.70
2022-08-30T09:42:26.483Z,100551.52
2022-08-30T09:45:10.178Z,100548.24
2022-08-30T09:47:43.472Z,100551.32
2022-08-30T09:50:24.246Z,100555.84
2022-08-30T09:53:01.004Z,100557.31
2022-08-30T09:56:00.384Z,100552.69
2022-08-30T09:58:49.754Z,100557.71
2022-08-30T10:01:24.644Z,100556.22
2022-08-30T10:04:22.601Z,100556.30
2022-08-30T10:06:52.265Z,100560.41
2022-08-30T10:09:30.383Z,100565.13
2022-08-30T10:12:28.368Z,100576.78
2022-08-30T10:15:18.540Z,100580.07
2022-08-30T10:17:45.980Z,100581.16
2022-08-30T10:20:13.427Z,100580.98
2022-08-30T10:22:50.919Z,100579.63
2022-08-30T10:25:28.726Z,100577.47
2022-08-30T10:28:10.126Z,100579.90
2022-08-30T10:30:42.181Z,100579.71
2022-08-30T10:33:17.283Z,100577.13
2022-08-30T10:35:50.617Z,100581.05
2022-08-30T10:38:29.373Z,100581.57
2022-08-30T10:41:15.589Z,100582.87
2022-08-30T10:44:15.018Z,100584.98
2022-08-30T10:47:06.197Z,100583.40
2022-08-30T10:49:44.469Z,100584.16
2022-08-30T10:52:11.887Z,100585.04
2022-08-30T10:54:50.432Z,100580.34
2022-08-30T10:57:19.711Z,100582.02
2022-08-30T10:59:54.677Z,100583.80
2022-08-30T11:02:27.950Z,100583.55
2022-08-30T11:05:25.947Z,100584.45
2022-08-30T11:07:56.334Z,100585.25
2022-08-30T11:10:25.613Z,100586.41
2022-08-30T11:13:03.018Z,100587.77
2022-08-30T11:15:35.731Z,100592.90
2022-08-30T11:18:10.225Z,100595.56
2022-08-30T11:20:49.903Z,100592.11
2022-08-30T11:23:34.790Z,100594.56
2022-08-30T11:26:16.982Z,100591.07
2022-08-30T11:28:48.190Z,100596.45
2022-08-30T11:31:18.738Z,100598.98
2022-08-30T11:33:51.715Z,100600.23
2022-08-30T11:36:46.030Z,100603.27
2022-08-30T11:39:49.791Z,100612.52
2022-08-30T11:42:35.054Z,100617.75
2022-08-30T11:45:26.753Z,100619.48
2022-08-30T11:48:09.957Z,100616.05
2022-08-30T11:50:53.906Z,100615.14
2022-08-30T11:53:29.489Z,100617.30
2022-08-30T11:56:21.168Z,100615.50
2022-08-30T11:58:59.626Z,100619.74
2022-08-30T12:01:50.995Z,100616.45
2022-08-30T12:04:17.321Z,100615.33
2022-08-30T12:06:49.078Z,100613.98
2022-08-30T12:09:24.270Z,100618.44
2022-08-30T12:11:57.163Z,100618.77
2022-08-30T12:14:44.598Z,100614.55
2022-08-30T12:17:36.206Z,100612.75
2022-08-30T12:20:13.888Z,100615.66
2022-08-30T12:22:41.531Z,100611.67
2022-08-30T12:25:22.057Z,100605.86
2022-08-30T12:27:50.333Z,100603.86
2022-08-30T12:30:27.892Z,100604.45
2022-08-30T12:32:55.566Z,100604.49
2022-08-30T12:35:28.769Z,100607.09
2022-08-30T12:38:02.790Z,100609.98
2022-08-30T12:40:31.556Z,100610.04
2022-08-30T12:43:05.241Z,100601.70
2022-08-30T12:45:41.543Z,100603.84
2022-08-30T12:48:14.101Z,100597.17
2022-08-30T12:50:54.246Z,100597.85
2022-08-30T12:53:42.709Z,100600.06
2022-08-30T12:56:13.522Z,100601.98
2022-08-30T12:58:49.484Z,100605.42
2022-08-30T13:01:19.284Z,100605.46
2022-08-30T13:03:55.694Z,100606.33
2022-08-30T13:06:47.985Z,100602.52
2022-08-30T13:09:34.491Z,100600.61
2022-08-30T13:12:26.655Z,100603.72
2022-08-30T13:15:24.792Z,100600.86
2022-08-30T13:18:13.239Z,100596.98
2022-08-30T13:20:40.799Z,100599.55
2022-08-30T13:23:10.645Z,100600.14
2022-08-30T13:25:40.045Z,100602.37
2022-08-30T13:28:07.862Z,100600.66
2022-08-30T13:30:36.105Z,100598.17
2022-08-30T13:33:03.626Z,100597.39
2022-08-30T13:35:32.087Z,100597.90
2022-08-30T13:38:02.478Z,100596.17
2022-08-30T13:40:30.322Z,100596.11
2022-08-30T13:42:58.651Z,100598.90
2022-08-30T13:45:42.267Z,100597.30
2022-08-30T13:48:12.104Z,100599.10
2022-08-30T13:50:40.762Z,100603.66
2022-08-30T13:53:09.176Z,100603.72
2022-08-30T13:55:39.120Z,100604.73
2022-08-30T13:58:08.605Z,100606.02
2022-08-30T14:00:38.131Z,100609.77
2022-08-30T14:03:06.044Z,100615.21
2022-08-30T14:06:05.295Z,100613.84
2022-08-30T14:11:19.721Z,100613.09
2022-08-30T14:16:42.190Z,100610.75
2022-08-30T14:19:12.098Z,100614.86
2022-08-30T14:21:39.694Z,100618.45
2022-08-30T14:24:07.817Z,100615.59
2022-08-30T14:26:45.210Z,100617.81
2022-08-30T14:29:18.114Z,100616.52
2022-08-30T14:31:45.614Z,100616.76
2022-08-30T14:34:15.685Z,100619.80
2022-08-30T14:36:45.371Z,100616.86
2022-08-30T14:39:17.723Z,100614.64
2022-08-30T14:41:49.269Z,100617.56
2022-08-30T14:44:18.921Z,100616.57
2022-08-30T14:46:47.444Z,100620.28
2022-08-30T14:49:16.217Z,100621.16
2022-08-30T14:51:48.345Z,100620.16
2022-08-30T14:54:18.264Z,100617.86
2022-08-30T14:56:45.997Z,100617.88
2022-08-30T14:59:14.111Z,100616.00
2022-08-30T15:01:42.889Z,100618.80
2022-08-30T15:04:11.821Z,100614.36
2022-08-30T15:06:42.005Z,100620.19
2022-08-30T15:09:11.962Z,100620.88
2022-08-30T15:11:39.804Z,100618.69
2022-08-30T15:14:07.287Z,100614.95
2022-08-30T15:16:36.833Z,100614.61
2022-08-30T15:19:08.170Z,100614.88
2022-08-30T15:21:43.051Z,100613.80
2022-08-30T15:24:14.030Z,100616.64
2022-08-30T15:26:44.065Z,100608.91
2022-08-30T15:29:14.641Z,100611.68
2022-08-30T15:31:43.954Z,100612.39
2022-08-30T15:34:14.469Z,100611.21
2022-08-30T15:36:44.028Z,100608.30
2022-08-30T15:39:13.538Z,100608.82
2022-08-30T15:41:44.453Z,100610.38
2022-08-30T15:44:13.080Z,100604.40
2022-08-30T15:46:43.315Z,100601.34
2022-08-30T15:49:14.611Z,100601.91
2022-08-30T15:51:46.105Z,100606.58
2022-08-30T15:54:16.714Z,100604.13
2022-08-30T15:56:44.830Z,100598.19
2022-08-30T15:59:15.239Z,100601.64
2022-08-30T16:01:43.838Z,100600.13
2022-08-30T16:04:11.697Z,100599.88
2022-08-30T16:06:39.850Z,100597.94
2022-08-30T16:09:10.355Z,100595.58
2022-08-30T16:11:38.282Z,100594.27
2022-08-30T16:14:06.359Z,100595.29
2022-08-30T16:16:34.414Z,100595.38
2022-08-30T16:19:02.927Z,100593.15
2022-08-30T16:21:32.680Z,100589.17
2022-08-30T16:24:01.778Z,100592.59
2022-08-30T16:26:31.394Z,100592.20
2022-08-30T16:29:00.190Z,100591.52
2022-08-30T16:31:30.205Z,100594.88
2022-08-30T16:34:02.169Z,100588.55
2022-08-30T16:36:32.503Z,100588.58
2022-08-30T16:39:00.019Z,100591.16
2022-08-30T16:41:27.607Z,100589.29
2022-08-30T16:43:55.619Z,100588.44
2022-08-30T16:46:27.634Z,100590.34
2022-08-30T16:48:58.182Z,100589.45
2022-08-30T16:51:28.239Z,100585.91
2022-08-30T16:53:57.870Z,100584.61
2022-08-30T16:56:27.501Z,100586.88
2022-08-30T16:59:01.718Z,100583.98
2022-08-30T17:01:41.061Z,100584.52
2022-08-30T17:04:09.527Z,100585.91
2022-08-30T17:06:37.543Z,100587.90
2022-08-30T17:09:06.731Z,100584.77
2022-08-30T17:11:36.319Z,100583.11
2022-08-30T17:14:04.626Z,100589.20
2022-08-30T17:16:34.439Z,100588.61
2022-08-30T17:19:05.109Z,100592.13
2022-08-30T17:21:33.142Z,100589.77
2022-08-30T17:24:02.036Z,100591.93
2022-08-30T17:26:32.222Z,100595.48
2022-08-30T17:29:00.040Z,100591.48
2022-08-30T17:31:30.654Z,100594.54
2022-08-30T17:36:48.227Z,100595.27
2022-08-30T17:39:18.191Z,100599.52
2022-08-30T17:41:50.486Z,100604.10
2022-08-30T17:44:23.249Z,100606.66
2022-08-30T17:46:54.812Z,100608.73
2022-08-30T17:49:24.028Z,100608.29
2022-08-30T17:51:56.693Z,100615.80
2022-08-30T17:54:26.859Z,100619.23
2022-08-30T17:56:56.179Z,100618.21
2022-08-30T17:59:25.489Z,100620.98
2022-08-30T18:01:55.153Z,100622.88
2022-08-30T18:04:24.721Z,100626.30
2022-08-30T18:06:53.617Z,100627.37
2022-08-30T18:09:21.631Z,100629.16
2022-08-30T18:11:50.883Z,100627.46
2022-08-30T18:14:18.693Z,100628.80
2022-08-30T18:16:53.087Z,100629.45
2022-08-30T18:19:24.418Z,100630.37
2022-08-30T18:21:52.850Z,100633.92
2022-08-30T18:24:22.016Z,100636.99
2022-08-30T18:26:49.876Z,100637.73
2022-08-30T18:29:29.422Z,100637.40
2022-08-30T18:32:02.831Z,100638.72
2022-08-30T18:34:31.532Z,100639.94
2022-08-30T18:36:59.189Z,100639.67
2022-08-30T18:39:26.725Z,100642.93
2022-08-30T18:41:55.773Z,100640.20
2022-08-30T18:44:28.853Z,100638.34
2022-08-30T18:47:00.642Z,100638.24
2022-08-30T18:49:32.249Z,100638.21
2022-08-30T18:52:02.237Z,100638.17
2022-08-30T18:54:30.218Z,100638.33
2022-08-30T18:56:57.719Z,100637.08
2022-08-30T18:59:35.733Z,100641.88
2022-08-30T19:02:10.867Z,100640.35
2022-08-30T19:04:39.760Z,100646.98
2022-08-30T19:07:12.623Z,100649.15
2022-08-30T19:09:40.966Z,100651.02
2022-08-30T19:12:11.416Z,100651.89
2022-08-30T19:14:39.994Z,100652.28
2022-08-30T19:17:07.896Z,100652.67
2022-08-30T19:19:45.150Z,100650.04
2022-08-30T19:22:22.136Z,100654.51
2022-08-30T19:24:50.385Z,100658.24
2022-08-30T19:27:21.619Z,100656.59
2022-08-30T19:30:09.531Z,100658.46
2022-08-30T19:32:37.433Z,100657.66
2022-08-30T19:35:05.914Z,100658.39
2022-08-30T19:37:34.580Z,100657.11
2022-08-30T19:40:05.600Z,100655.19
2022-08-30T19:42:34.942Z,100656.84
2022-08-30T19:45:07.613Z,100657.08
2022-08-30T19:47:35.795Z,100657.77
2022-08-30T19:50:04.990Z,100658.27
2022-08-30T19:52:33.210Z,100655.50
2022-08-30T19:55:02.872Z,100656.02
2022-08-30T19:57:30.848Z,100659.13
2022-08-30T19:59:58.931Z,100658.44
2022-08-30T20:02:27.234Z,100658.23
2022-08-30T20:04:55.052Z,100658.12
2022-08-30T20:07:27.491Z,100655.79
2022-08-30T20:09:55.466Z,100658.16
2022-08-30T20:12:23.056Z,100660.40
2022-08-30T20:14:50.730Z,100658.43
2022-08-30T20:17:20.017Z,100656.83
2022-08-30T20:19:47.651Z,100654.63
2022-08-30T20:22:15.288Z,100650.22
2022-08-30T20:24:24.996Z,100594.41
2022-08-30T20:24:43.555Z,100650.30
2022-08-30T20:27:11.816Z,100652.23
2022-08-30T20:29:41.067Z,100655.48
2022-08-30T20:32:08.786Z,100656.63
2022-08-30T20:34:38.189Z,100659.40
2022-08-30T20:37:08.060Z,100656.92
2022-08-30T20:39:37.074Z,100656.34
2022-08-30T20:42:05.021Z,100657.96
2022-08-30T20:44:32.766Z,100660.42
2022-08-30T20:47:00.640Z,100660.96
2022-08-30T20:49:28.095Z,100664.73
2022-08-30T20:51:55.549Z,100664.47
2022-08-30T20:54:23.187Z,100667.79
2022-08-30T20:56:51.530Z,100667.56
2022-08-30T20:59:19.189Z,100668.67
2022-08-30T21:01:48.565Z,100671.52
2022-08-30T21:04:17.532Z,100669.98
2022-08-30T21:06:45.081Z,100674.74
2022-08-30T21:09:12.596Z,100673.43
2022-08-30T21:11:44.348Z,100674.14
2022-08-30T21:14:12.614Z,100676.16
2022-08-30T21:16:40.203Z,100678.13
2022-08-30T21:19:07.827Z,100683.64
2022-08-30T21:21:35.426Z,100684.24
2022-08-30T21:24:10.027Z,100685.54
2022-08-30T21:26:40.703Z,100687.35
2022-08-30T21:29:08.475Z,100686.48
2022-08-30T21:31:39.881Z,100686.59
2022-08-30T21:34:07.674Z,100686.01
2022-08-30T21:36:54.896Z,100686.91
2022-08-30T21:39:26.267Z,100687.04
2022-08-30T21:41:59.409Z,100691.70
2022-08-30T21:44:27.203Z,100691.61
2022-08-30T21:46:55.594Z,100688.30
2022-08-30T21:49:24.610Z,100682.64
2022-08-30T21:51:53.672Z,100681.17
2022-08-30T21:54:22.491Z,100681.36
2022-08-30T21:56:52.589Z,100676.34
2022-08-30T21:59:21.830Z,100675.06
2022-08-30T22:01:49.586Z,100671.98
2022-08-30T22:04:17.770Z,100670.90
2022-08-30T22:06:48.107Z,100669.39
2022-08-30T22:09:23.173Z,100670.15
2022-08-30T22:11:52.130Z,100672.64
2022-08-30T22:14:20.447Z,100675.97
2022-08-30T22:16:48.796Z,100678.93
2022-08-30T22:19:22.439Z,100674.22
2022-08-30T22:21:51.884Z,100674.27
2022-08-30T22:24:19.824Z,100674.83
2022-08-30T22:26:47.714Z,100679.05
2022-08-30T22:29:15.484Z,100679.90
2022-08-30T22:31:44.077Z,100675.27
2022-08-30T22:34:11.742Z,100678.02
2022-08-30T22:36:39.299Z,100676.20
2022-08-30T22:39:08.785Z,100672.31
2022-08-30T22:41:37.318Z,100670.38
2022-08-30T22:44:05.005Z,100672.86
2022-08-30T22:46:33.967Z,100675.15
2022-08-30T22:49:05.298Z,100667.95
2022-08-30T22:51:33.664Z,100670.58
2022-08-30T22:54:02.235Z,100671.25
2022-08-30T22:56:30.818Z,100672.09
2022-08-30T22:58:58.337Z,100671.45
2022-08-30T23:01:27.478Z,100665.84
2022-08-30T23:03:55.673Z,100668.31
2022-08-30T23:06:23.602Z,100668.19
2022-08-30T23:08:51.284Z,100669.45
2022-08-30T23:11:19.562Z,100670.34
2022-08-30T23:13:47.440Z,100671.05
2022-08-30T23:16:16.043Z,100672.44
2022-08-30T23:18:45.830Z,100674.62
2022-08-30T23:21:19.810Z,100676.71
2022-08-30T23:24:04.070Z,100680.55
2022-08-30T23:26:47.620Z,100683.88
2022-08-30T23:29:31.898Z,100680.83
2022-08-30T23:32:15.929Z,100676.67
2022-08-30T23:35:00.193Z,100674.83
2022-08-30T23:37:42.623Z,100677.23
2022-08-30T23:40:26.917Z,100677.95
2022-08-30T23:43:09.552Z,100675.52
2022-08-30T23:45:53.197Z,100672.58
2022-08-30T23:48:37.112Z,100675.63
2022-08-30T23:51:21.812Z,100676.66
2022-08-30T23:54:05.417Z,100676.42
2022-08-30T23:56:49.779Z,100681.14
2022-08-30T23:59:33.171Z,100680.77
